Time;durP1;ratioP1;P1;durP2;ratioP2;P2;SDS_P1;SDS_P2;PMS_P1;PMS_P2;Temp;Humidity;BMP_temperature;BMP_pressure;BME280_temperature;BME280_humidity;BME280_pressure;Samples;Min_cycle;Max_cycle;Signal;HPM_P1;HPM_P2
2022/10/12 00:01:37;;;;;;;14.80;5.20;;;;;;;;;;5072258;28;20550;-66
2022/10/12 00:04:07;;;;;;;8.73;4.55;;;;;;;;;;5072457;28;20059;-66
2022/10/12 00:06:37;;;;;;;9.70;5.28;;;;;;;;;;5073457;28;20059;-66
2022/10/12 00:09:07;;;;;;;7.35;3.92;;;;;;;;;;5074488;28;20044;-66
2022/10/12 00:11:39;;;;;;;5.60;3.03;;;;;;;;;;5072573;28;20053;-67
2022/10/12 00:14:10;;;;;;;4.97;2.90;;;;;;;;;;5088791;28;20063;-66
2022/10/12 00:16:40;;;;;;;4.07;1.92;;;;;;;;;;5072464;28;20427;-66
2022/10/12 00:19:13;;;;;;;3.95;2.38;;;;;;;;;;5074514;28;20060;-66
2022/10/12 00:21:43;;;;;;;4.70;2.13;;;;;;;;;;5074497;28;20044;-66
2022/10/12 00:24:14;;;;;;;3.88;2.05;;;;;;;;;;5074270;28;20071;-66
2022/10/12 00:26:44;;;;;;;3.63;1.90;;;;;;;;;;5072114;28;20060;-66
2022/10/12 00:29:14;;;;;;;3.00;1.83;;;;;;;;;;5074392;28;20048;-66
2022/10/12 00:31:44;;;;;;;5.57;2.13;;;;;;;;;;5069096;28;20048;-66
2022/10/12 00:34:14;;;;;;;5.78;2.17;;;;;;;;;;5075360;28;20056;-66
2022/10/12 00:36:44;;;;;;;3.40;1.58;;;;;;;;;;5094383;28;20052;-66
2022/10/12 00:39:14;;;;;;;3.70;1.50;;;;;;;;;;5075112;28;20051;-66
2022/10/12 00:41:44;;;;;;;6.65;2.22;;;;;;;;;;5058767;28;20491;-66
2022/10/12 00:44:33;;;;;;;6.07;2.03;;;;;;;;;;5058582;28;20060;-66
2022/10/12 00:47:28;;;;;;;3.67;1.88;;;;;;;;;;5075064;28;20044;-66
2022/10/12 00:50:07;;;;;;;5.68;2.50;;;;;;;;;;5094311;28;20048;-66
2022/10/12 00:52:46;;;;;;;4.38;2.10;;;;;;;;;;5093679;28;20044;-66
2022/10/12 00:55:20;;;;;;;6.72;1.88;;;;;;;;;;5094093;28;20048;-66
2022/10/12 00:57:52;;;;;;;3.13;1.75;;;;;;;;;;5050895;28;20056;-65
2022/10/12 01:00:23;;;;;;;5.93;1.92;;;;;;;;;;5051286;28;20080;-66
2022/10/12 01:02:53;;;;;;;6.43;2.15;;;;;;;;;;5051188;28;20053;-66
2022/10/12 01:05:24;;;;;;;6.07;2.20;;;;;;;;;;5051339;28;20040;-66
2022/10/12 01:07:54;;;;;;;4.18;2.03;;;;;;;;;;5018586;28;20061;-66
2022/10/12 01:10:24;;;;;;;4.40;2.10;;;;;;;;;;5001059;28;20511;-66
2022/10/12 01:12:54;;;;;;;5.57;2.03;;;;;;;;;;5033959;28;20056;-66
2022/10/12 01:15:32;;;;;;;4.20;1.85;;;;;;;;;;5017895;28;20057;-66
2022/10/12 01:18:07;;;;;;;13.13;4.10;;;;;;;;;;5050863;28;20040;-66
2022/10/12 01:21:08;;;;;;;8.02;3.58;;;;;;;;;;5051186;28;20060;-66
2022/10/12 01:24:07;;;;;;;4.38;2.53;;;;;;;;;;4972234;28;20077;-66
2022/10/12 01:26:52;;;;;;;5.75;2.80;;;;;;;;;;4898717;29;20052;-66
2022/10/12 01:29:22;;;;;;;5.72;2.83;;;;;;;;;;4914613;29;20064;-66
2022/10/12 01:32:00;;;;;;;4.85;2.00;;;;;;;;;;4914452;29;20452;-66
2022/10/12 01:34:34;;;;;;;5.10;2.67;;;;;;;;;;4917994;29;20067;-66
2022/10/12 01:37:08;;;;;;;5.82;2.78;;;;;;;;;;4952746;29;20058;-65
2022/10/12 01:39:55;;;;;;;6.05;2.85;;;;;;;;;;4952615;29;20050;-66
2022/10/12 01:42:38;;;;;;;6.72;2.50;;;;;;;;;;4936416;29;20523;-66
2022/10/12 01:45:15;;;;;;;5.63;1.83;;;;;;;;;;4952505;29;20407;-65
2022/10/12 01:47:51;;;;;;;6.80;2.22;;;;;;;;;;4952530;29;20446;-66
2022/10/12 01:50:31;;;;;;;5.80;2.58;;;;;;;;;;4952514;29;20055;-66
2022/10/12 01:53:27;;;;;;;4.47;2.17;;;;;;;;;;4920552;29;20511;-66
2022/10/12 01:56:18;;;;;;;5.20;2.42;;;;;;;;;;4952363;29;20164;-66
2022/10/12 01:59:16;;;;;;;5.47;2.95;;;;;;;;;;4905104;29;20055;-66
2022/10/12 02:02:18;;;;;;;4.72;2.47;;;;;;;;;;4990837;28;20050;-66
2022/10/12 02:04:55;;;;;;;4.18;2.10;;;;;;;;;;5010376;28;20053;-66
2022/10/12 02:07:43;;;;;;;4.50;2.42;;;;;;;;;;5010534;28;20061;-66
2022/10/12 02:10:28;;;;;;;5.95;2.65;;;;;;;;;;5010393;28;20053;-66
2022/10/12 02:13:00;;;;;;;;;;;;;;;;;;4994747;28;20050;-66
2022/10/12 02:15:32;;;;;;;10.43;2.42;;;;;;;;;;4993765;28;19921;-66
2022/10/12 02:18:04;;;;;;;5.68;2.63;;;;;;;;;;5010764;28;20540;-66
2022/10/12 02:20:38;;;;;;;6.70;2.40;;;;;;;;;;5010292;28;20061;-66
2022/10/12 02:23:10;;;;;;;3.90;1.48;;;;;;;;;;4978851;28;20405;-66
2022/10/12 02:25:40;;;;;;;;;;;;;;;;;;4994029;28;20050;-66
2022/10/12 02:28:15;;;;;;;4.65;2.15;;;;;;;;;;5010215;28;20532;-66
2022/10/12 02:31:00;;;;;;;6.07;2.00;;;;;;;;;;4999446;28;20060;-66
2022/10/12 02:33:41;;;;;;;3.40;1.80;;;;;;;;;;5046261;28;20467;-66
2022/10/12 02:36:22;;;;;;;5.50;2.33;;;;;;;;;;5029997;28;20054;-66
2022/10/12 02:39:05;;;;;;;4.63;1.95;;;;;;;;;;5029849;28;20060;-66
2022/10/12 02:41:49;;;;;;;4.85;1.67;;;;;;;;;;5045395;28;20057;-66
2022/10/12 02:44:27;;;;;;;4.03;2.28;;;;;;;;;;5070028;28;20067;-66
2022/10/12 02:47:00;;;;;;;4.60;2.05;;;;;;;;;;5072101;28;20052;-66
2022/10/12 02:49:32;;;;;;;7.32;1.55;;;;;;;;;;5053810;28;20399;-66
2022/10/12 02:52:03;;;;;;;;;;;;;;;;;;5038094;28;20067;-66
2022/10/12 02:54:33;;;;;;;7.10;2.03;;;;;;;;;;5053071;28;19920;-66
2022/10/12 02:57:04;;;;;;;4.88;1.98;;;;;;;;;;5071721;28;20067;-66
2022/10/12 02:59:33;;;;;;;3.78;2.05;;;;;;;;;;5072141;28;20477;-66
2022/10/12 03:02:04;;;;;;;5.75;1.88;;;;;;;;;;5071865;28;20043;-66
2022/10/12 03:04:33;;;;;;;7.75;1.83;;;;;;;;;;5071960;28;20045;-66
2022/10/12 03:07:04;;;;;;;6.10;1.45;;;;;;;;;;5071703;28;20389;-66
2022/10/12 03:09:34;;;;;;;4.05;1.92;;;;;;;;;;5072019;28;20048;-66
2022/10/12 03:12:04;;;;;;;3.47;2.63;;;;;;;;;;5071845;28;20041;-66
2022/10/12 03:14:36;;;;;;;5.47;2.00;;;;;;;;;;5053667;28;20061;-66
2022/10/12 03:17:06;;;;;;;5.03;2.10;;;;;;;;;;5071628;28;20037;-67
2022/10/12 03:19:38;;;;;;;7.25;2.20;;;;;;;;;;5036473;28;20056;-66
2022/10/12 03:22:08;;;;;;;3.92;2.15;;;;;;;;;;5053014;28;20048;-66
2022/10/12 03:24:38;;;;;;;6.63;1.83;;;;;;;;;;5071750;28;20404;-66
2022/10/12 03:27:08;;;;;;;3.42;1.60;;;;;;;;;;5036503;28;20414;-66
2022/10/12 03:29:38;;;;;;;5.07;1.63;;;;;;;;;;5052952;28;20079;-66
2022/10/12 03:32:08;;;;;;;4.13;1.92;;;;;;;;;;5056984;28;20078;-66
2022/10/12 03:34:38;;;;;;;3.65;2.50;;;;;;;;;;5091719;28;20044;-66
2022/10/12 03:37:08;;;;;;;3.65;2.00;;;;;;;;;;5075095;28;20052;-66
2022/10/12 03:39:39;;;;;;;3.80;1.55;;;;;;;;;;5019490;28;20502;-66
2022/10/12 03:42:09;;;;;;;4.32;2.30;;;;;;;;;;5052907;28;20057;-66
2022/10/12 03:44:39;;;;;;;2.55;1.45;;;;;;;;;;5019226;28;20511;-66
2022/10/12 03:47:09;;;;;;;3.72;1.85;;;;;;;;;;5052971;28;20052;-66
2022/10/12 03:49:39;;;;;;;5.50;2.08;;;;;;;;;;5052624;28;20495;-66
2022/10/12 03:52:09;;;;;;;6.32;2.30;;;;;;;;;;5052765;28;20057;-66
2022/10/12 03:54:39;;;;;;;4.65;2.15;;;;;;;;;;5020148;28;20061;-66
2022/10/12 03:57:09;;;;;;;4.25;1.42;;;;;;;;;;5052599;28;20464;-66
2022/10/12 03:59:39;;;;;;;5.35;1.98;;;;;;;;;;5036434;28;20059;-66
2022/10/12 04:02:08;;;;;;;4.45;1.90;;;;;;;;;;5052516;28;20048;-66
2022/10/12 04:04:45;;;;;;;3.25;1.90;;;;;;;;;;5052577;28;20053;-66
2022/10/12 04:07:15;;;;;;;4.20;2.30;;;;;;;;;;5032032;28;20057;-66
2022/10/12 04:09:45;;;;;;;5.50;1.92;;;;;;;;;;5032166;28;20057;-66
2022/10/12 04:12:14;;;;;;;3.65;1.65;;;;;;;;;;5032484;28;20104;-66
2022/10/12 04:14:44;;;;;;;5.35;1.75;;;;;;;;;;4984422;28;20060;-66
2022/10/12 04:17:15;;;;;;;3.65;1.35;;;;;;;;;;5042033;28;20623;-66
2022/10/12 04:19:46;;;;;;;4.47;2.20;;;;;;;;;;5035361;28;20048;-65
2022/10/12 04:22:16;;;;;;;4.72;1.92;;;;;;;;;;5036045;28;20049;-66
2022/10/12 04:24:46;;;;;;;2.85;1.80;;;;;;;;;;5035124;28;20064;-66
2022/10/12 04:27:16;;;;;;;5.00;1.63;;;;;;;;;;5052035;28;20041;-66
2022/10/12 04:29:46;;;;;;;3.58;1.73;;;;;;;;;;5002356;28;20053;-66
2022/10/12 04:32:16;;;;;;;2.90;1.58;;;;;;;;;;5051753;28;20064;-66
2022/10/12 04:34:46;;;;;;;2.95;1.88;;;;;;;;;;5051768;28;20095;-66
2022/10/12 04:37:16;;;;;;;3.92;1.90;;;;;;;;;;5051927;28;20060;-66
2022/10/12 04:39:46;;;;;;;4.57;1.90;;;;;;;;;;5051764;28;20056;-66
2022/10/12 04:42:16;;;;;;;3.30;1.80;;;;;;;;;;5035032;28;20056;-66
2022/10/12 04:44:46;;;;;;;4.03;1.85;;;;;;;;;;5058926;28;20480;-66
2022/10/12 04:47:17;;;;;;;6.80;2.00;;;;;;;;;;5076114;28;20511;-66
2022/10/12 04:49:47;;;;;;;4.13;2.00;;;;;;;;;;5094208;28;20044;-66
2022/10/12 04:52:16;;;;;;;4.85;1.45;;;;;;;;;;5092843;28;20411;-66
2022/10/12 04:54:46;;;;;;;4.35;1.70;;;;;;;;;;5093759;28;20468;-66
2022/10/12 04:57:16;;;;;;;5.28;3.13;;;;;;;;;;5075036;28;20483;-66
2022/10/12 04:59:46;;;;;;;3.30;1.88;;;;;;;;;;5093758;28;20036;-66
2022/10/12 05:02:16;;;;;;;3.55;2.00;;;;;;;;;;5075040;28;20499;-67
2022/10/12 05:04:46;;;;;;;2.92;1.38;;;;;;;;;;5058350;28;20419;-66
2022/10/12 05:07:16;;;;;;;5.05;1.85;;;;;;;;;;5093746;28;20040;-66
2022/10/12 05:09:46;;;;;;;3.60;1.75;;;;;;;;;;5093740;28;20048;-66
2022/10/12 05:12:16;;;;;;;3.70;2.40;;;;;;;;;;5058086;28;20063;-66
2022/10/12 05:14:46;;;;;;;2.80;1.70;;;;;;;;;;5074640;28;20056;-66
2022/10/12 05:17:16;;;;;;;5.40;1.88;;;;;;;;;;5093400;28;20044;-66
2022/10/12 05:19:46;;;;;;;3.42;2.50;;;;;;;;;;5093528;28;20498;-66
2022/10/12 05:22:16;;;;;;;4.32;1.50;;;;;;;;;;5093317;28;20110;-66
2022/10/12 05:24:47;;;;;;;2.85;1.13;;;;;;;;;;5093770;28;20384;-66
2022/10/12 05:27:21;;;;;;;3.47;1.33;;;;;;;;;;5058024;28;20063;-66
2022/10/12 05:29:51;;;;;;;4.38;1.95;;;;;;;;;;5074504;28;20056;-66
2022/10/12 05:32:22;;;;;;;3.90;1.50;;;;;;;;;;5057278;28;20054;-66
2022/10/12 05:34:52;;;;;;;2.67;1.58;;;;;;;;;;5093206;28;20044;-66
2022/10/12 05:37:22;;;;;;;2.97;1.45;;;;;;;;;;5074168;28;20063;-66
2022/10/12 05:39:53;;;;;;;2.55;1.33;;;;;;;;;;5074327;28;20056;-66
2022/10/12 05:42:23;;;;;;;3.58;1.65;;;;;;;;;;5093076;28;20052;-66
2022/10/12 05:44:54;;;;;;;2.58;1.40;;;;;;;;;;5057747;28;20056;-66
2022/10/12 05:47:24;;;;;;;3.45;0.93;;;;;;;;;;5092857;28;20380;-66
2022/10/12 05:49:54;;;;;;;2.10;1.30;;;;;;;;;;5057682;28;20525;-66
2022/10/12 05:52:25;;;;;;;1.67;1.00;;;;;;;;;;5070133;28;20063;-66
2022/10/12 05:54:55;;;;;;;2.25;1.27;;;;;;;;;;5070432;28;20507;-66
2022/10/12 05:57:25;;;;;;;3.00;2.10;;;;;;;;;;5053258;28;20049;-66
2022/10/12 05:59:54;;;;;;;3.95;1.08;;;;;;;;;;5053037;28;20049;-67
2022/10/12 06:02:24;;;;;;;5.38;1.35;;;;;;;;;;5070216;28;20045;-66
2022/10/12 06:04:54;;;;;;;1.77;1.08;;;;;;;;;;5053489;28;20049;-66
2022/10/12 06:07:24;;;;;;;1.90;1.10;;;;;;;;;;5070206;28;20056;-66
2022/10/12 06:09:54;;;;;;;1.95;1.20;;;;;;;;;;5070232;28;20071;-66
2022/10/12 06:12:25;;;;;;;2.58;1.45;;;;;;;;;;5019900;28;20053;-66
2022/10/12 06:14:55;;;;;;;2.88;1.10;;;;;;;;;;5070077;28;20044;-66
2022/10/12 06:17:25;;;;;;;3.03;1.35;;;;;;;;;;5070063;28;20175;-66
2022/10/12 06:19:55;;;;;;;2.38;1.20;;;;;;;;;;5069948;28;20053;-66
2022/10/12 06:22:26;;;;;;;1.70;0.95;;;;;;;;;;5069966;28;20059;-67
2022/10/12 06:24:56;;;;;;;2.25;1.30;;;;;;;;;;5036492;28;20060;-66
2022/10/12 06:27:26;;;;;;;1.73;1.10;;;;;;;;;;5019772;28;20049;-66
2022/10/12 06:29:56;;;;;;;2.33;0.50;;;;;;;;;;5062582;28;20415;-67
2022/10/12 06:32:28;;;;;;;3.38;1.00;;;;;;;;;;5056411;28;20063;-66
2022/10/12 06:34:57;;;;;;;2.45;0.98;;;;;;;;;;5073733;28;20048;-67
2022/10/12 06:37:28;;;;;;;1.85;1.17;;;;;;;;;;5073177;28;20040;-66
2022/10/12 06:40:18;;;;;;;2.72;1.08;;;;;;;;;;5092484;28;20040;-66
2022/10/12 06:42:49;;;;;;;2.95;1.08;;;;;;;;;;5073646;28;20056;-66
2022/10/12 06:45:27;;;;;;;4.13;1.30;;;;;;;;;;5069565;28;20052;-66
2022/10/12 06:47:57;;;;;;;2.70;1.20;;;;;;;;;;5053379;28;20199;-67
2022/10/12 06:50:27;;;;;;;2.80;1.38;;;;;;;;;;5032867;28;20052;-67
2022/10/12 06:52:57;;;;;;;3.13;1.10;;;;;;;;;;5016467;28;20053;-67
2022/10/12 06:55:27;;;;;;;2.00;1.20;;;;;;;;;;5049690;28;20045;-67
2022/10/12 06:57:57;;;;;;;2.53;1.20;;;;;;;;;;5016647;28;20060;-67
2022/10/12 07:00:27;;;;;;;2.25;1.10;;;;;;;;;;5016425;28;20060;-67
2022/10/12 07:02:57;;;;;;;2.25;1.13;;;;;;;;;;5049759;28;20057;-66
2022/10/12 07:05:27;;;;;;;2.70;1.60;;;;;;;;;;5049939;28;20072;-66
2022/10/12 07:07:57;;;;;;;2.42;1.20;;;;;;;;;;5032504;28;20052;-67
2022/10/12 07:10:27;;;;;;;2.25;1.25;;;;;;;;;;5016443;28;20061;-66
2022/10/12 07:12:58;;;;;;;3.00;1.30;;;;;;;;;;5032856;28;20065;-66
2022/10/12 07:15:28;;;;;;;3.17;1.10;;;;;;;;;;5000483;28;20053;-67
2022/10/12 07:17:58;;;;;;;3.13;1.50;;;;;;;;;;5016594;28;20049;-67
2022/10/12 07:20:28;;;;;;;3.05;2.05;;;;;;;;;;5033394;28;20049;-67
2022/10/12 07:22:58;;;;;;;3.55;1.52;;;;;;;;;;5033160;28;20065;-66
2022/10/12 07:25:28;;;;;;;2.88;1.42;;;;;;;;;;5049655;28;20548;-67
2022/10/12 07:27:58;;;;;;;2.70;1.30;;;;;;;;;;5042176;28;20064;-67
2022/10/12 07:30:28;;;;;;;2.88;1.30;;;;;;;;;;5019807;28;20053;-66
2022/10/12 07:32:58;;;;;;;4.25;1.40;;;;;;;;;;5019739;28;20064;-67
2022/10/12 07:35:28;;;;;;;4.57;1.30;;;;;;;;;;5053055;28;20052;-67
2022/10/12 07:37:58;;;;;;;5.53;1.65;;;;;;;;;;5052958;28;20068;-67
2022/10/12 07:40:29;;;;;;;3.60;1.70;;;;;;;;;;5052917;28;20049;-67
2022/10/12 07:42:59;;;;;;;2.63;1.15;;;;;;;;;;5052848;28;20408;-67
2022/10/12 07:45:44;;;;;;;2.38;1.25;;;;;;;;;;4991894;28;20416;-67
2022/10/12 07:48:14;;;;;;;2.25;1.27;;;;;;;;;;5002970;28;20053;-67
2022/10/12 07:50:45;;;;;;;3.00;1.30;;;;;;;;;;5046460;28;20048;-66
2022/10/12 07:53:15;;;;;;;2.20;1.15;;;;;;;;;;5072600;28;20548;-67
2022/10/12 07:55:45;;;;;;;4.13;0.80;;;;;;;;;;5022598;28;20463;-67
2022/10/12 07:58:16;;;;;;;3.42;1.67;;;;;;;;;;5022305;28;20048;-67
2022/10/12 08:00:45;;;;;;;2.85;1.40;;;;;;;;;;5072465;28;20060;-66
2022/10/12 08:03:16;;;;;;;2.55;1.35;;;;;;;;;;5072316;28;20061;-68
2022/10/12 08:05:46;;;;;;;2.92;1.40;;;;;;;;;;5072653;28;20048;-67
2022/10/12 08:08:15;;;;;;;4.72;1.55;;;;;;;;;;5072455;28;20060;-67
2022/10/12 08:10:45;;;;;;;2.25;1.30;;;;;;;;;;5038971;28;20055;-67
2022/10/12 08:13:15;;;;;;;1.77;1.02;;;;;;;;;;5039010;28;20061;-67
2022/10/12 08:15:49;;;;;;;2.80;1.08;;;;;;;;;;5023334;28;20059;-67
2022/10/12 08:18:19;;;;;;;2.70;1.75;;;;;;;;;;5055948;28;20064;-67
2022/10/12 08:20:49;;;;;;;2.97;1.52;;;;;;;;;;5072218;28;20048;-67
2022/10/12 08:23:19;;;;;;;2.85;1.30;;;;;;;;;;5038387;28;20064;-67
2022/10/12 08:25:54;;;;;;;2.80;1.38;;;;;;;;;;5038683;28;20056;-67
2022/10/12 08:28:26;;;;;;;4.00;1.13;;;;;;;;;;5083747;28;20518;-67
2022/10/12 08:30:56;;;;;;;2.65;0.70;;;;;;;;;;5071697;28;20427;-67
2022/10/12 08:33:28;;;;;;;3.25;1.20;;;;;;;;;;5071957;28;20059;-67
2022/10/12 08:36:02;;;;;;;1.92;1.20;;;;;;;;;;5038563;28;20053;-67
2022/10/12 08:38:33;;;;;;;2.33;1.10;;;;;;;;;;5055323;28;20056;-67
2022/10/12 08:41:30;;;;;;;2.22;1.25;;;;;;;;;;5011764;28;20061;-67
2022/10/12 08:44:03;;;;;;;2.28;1.10;;;;;;;;;;5011959;28;20050;-67
2022/10/12 08:46:33;;;;;;;3.17;1.42;;;;;;;;;;5011973;28;20066;-67
2022/10/12 08:49:12;;;;;;;1.98;1.20;;;;;;;;;;5011971;28;20541;-67
2022/10/12 08:51:52;;;;;;;3.78;1.40;;;;;;;;;;5012082;28;20064;-67
2022/10/12 08:54:31;;;;;;;3.08;1.70;;;;;;;;;;5011966;28;20545;-66
2022/10/12 08:57:01;;;;;;;2.35;1.15;;;;;;;;;;4963137;28;20050;-67
2022/10/12 08:59:33;;;;;;;3.25;1.52;;;;;;;;;;5011513;28;20187;-67
2022/10/12 09:02:35;;;;;;;2.25;1.20;;;;;;;;;;5021334;28;20061;-67
2022/10/12 09:05:26;;;;;;;3.08;1.27;;;;;;;;;;4924805;28;20396;-67
2022/10/12 09:08:08;;;;;;;3.38;1.50;;;;;;;;;;4972480;28;20078;-67
2022/10/12 09:11:13;;;;;;;2.40;0.93;;;;;;;;;;4972482;28;20674;-68
2022/10/12 09:13:51;;;;;;;1.63;1.10;;;;;;;;;;5031159;28;20056;-67
2022/10/12 09:16:28;;;;;;;2.55;1.10;;;;;;;;;;5030957;28;20060;-67
2022/10/12 09:19:21;;;;;;;2.30;1.13;;;;;;;;;;4998552;28;20046;-67
2022/10/12 09:21:52;;;;;;;2.22;1.17;;;;;;;;;;4972199;28;20055;-67
2022/10/12 09:24:26;;;;;;;3.25;1.48;;;;;;;;;;4972181;28;20066;-67
2022/10/12 09:26:59;;;;;;;2.08;1.05;;;;;;;;;;4956630;28;20046;-67
2022/10/12 09:29:31;;;;;;;2.42;1.20;;;;;;;;;;4923981;28;20525;-67
2022/10/12 09:32:09;;;;;;;3.28;1.00;;;;;;;;;;4952572;28;20054;-67
2022/10/12 09:34:45;;;;;;;2.42;1.05;;;;;;;;;;4952476;28;20059;-67
2022/10/12 09:37:20;;;;;;;3.08;1.48;;;;;;;;;;4942314;29;20060;-67
2022/10/12 09:39:51;;;;;;;1.77;1.00;;;;;;;;;;4917582;29;20508;-67
2022/10/12 09:42:21;;;;;;;2.75;1.33;;;;;;;;;;4926160;29;20472;-68
2022/10/12 09:45:15;;;;;;;2.65;1.13;;;;;;;;;;4933347;29;20062;-67
2022/10/12 09:48:14;;;;;;;4.95;1.50;;;;;;;;;;4929435;29;20052;-67
2022/10/12 09:51:02;;;;;;;1.75;1.15;;;;;;;;;;4898220;29;20055;-67
2022/10/12 09:53:43;;;;;;;5.00;1.20;;;;;;;;;;4898605;29;20049;-67
2022/10/12 09:56:38;;;;;;;3.30;1.15;;;;;;;;;;4930021;29;20055;-67
2022/10/12 09:59:34;;;;;;;3.08;1.40;;;;;;;;;;4921181;28;20054;-67
2022/10/12 10:02:10;;;;;;;2.80;1.40;;;;;;;;;;4971822;28;20055;-67
2022/10/12 10:04:43;;;;;;;5.05;1.35;;;;;;;;;;4952150;29;20052;-68
2022/10/12 10:07:35;;;;;;;1.65;1.00;;;;;;;;;;4952406;29;20071;-67
2022/10/12 10:10:21;;;;;;;2.30;1.20;;;;;;;;;;4962236;28;20066;-67
2022/10/12 10:13:01;;;;;;;2.28;1.13;;;;;;;;;;4975795;28;20058;-67
2022/10/12 10:15:37;;;;;;;2.60;1.20;;;;;;;;;;4974647;28;20050;-67
2022/10/12 10:18:35;;;;;;;2.05;1.17;;;;;;;;;;4990689;28;20057;-68
2022/10/12 10:21:09;;;;;;;;;;;;;;;;;;5028752;28;20166;-67
2022/10/12 10:24:00;;;;;;;1.90;1.02;;;;;;;;;;5029975;28;19921;-68
2022/10/12 10:26:51;;;;;;;3.25;1.65;;;;;;;;;;4981034;28;20064;-67
2022/10/12 10:29:21;;;;;;;4.57;2.35;;;;;;;;;;4998212;28;20144;-68
2022/10/12 10:32:28;;;;;;;2.85;1.50;;;;;;;;;;5054243;28;20060;-67
2022/10/12 10:35:05;;;;;;;2.70;1.50;;;;;;;;;;4990362;28;20123;-68
2022/10/12 10:37:36;;;;;;;3.25;1.38;;;;;;;;;;4958384;28;20658;-68
2022/10/12 10:40:06;;;;;;;4.22;1.80;;;;;;;;;;4990626;28;20109;-67
2022/10/12 10:42:36;;;;;;;3.55;1.90;;;;;;;;;;5002972;28;20046;-67
2022/10/12 10:45:07;;;;;;;3.72;2.30;;;;;;;;;;5010696;28;20053;-67
2022/10/12 10:47:45;;;;;;;10.07;5.03;;;;;;;;;;5014226;28;20057;-67
2022/10/12 10:50:25;;;;;;;55.95;19.35;;;;;;;;;;5014217;28;20453;-67
2022/10/12 10:53:00;;;;;;;16.42;6.22;;;;;;;;;;4961996;28;20054;-68
2022/10/12 10:55:59;;;;;;;66.82;33.50;;;;;;;;;;4994430;28;20069;-68
2022/10/12 10:58:37;;;;;;;8.32;3.92;;;;;;;;;;4955424;29;20601;-67
2022/10/12 11:01:15;;;;;;;7.93;3.90;;;;;;;;;;4936145;29;20594;-67
2022/10/12 11:03:59;;;;;;;5.10;2.97;;;;;;;;;;4919921;29;20511;-67
2022/10/12 11:06:42;;;;;;;7.15;3.22;;;;;;;;;;4936308;29;20060;-67
2022/10/12 11:09:28;;;;;;;4.40;2.30;;;;;;;;;;4936326;29;20078;-67
2022/10/12 11:12:02;;;;;;;5.93;2.50;;;;;;;;;;4927852;28;20049;-67
2022/10/12 11:14:44;;;;;;;6.85;2.58;;;;;;;;;;4980727;28;20093;-67
2022/10/12 11:17:36;;;;;;;6.50;3.28;;;;;;;;;;5013461;28;20050;-67
2022/10/12 11:20:25;;;;;;;13.90;6.45;;;;;;;;;;4993821;28;20058;-67
2022/10/12 11:23:15;;;;;;;8.10;3.08;;;;;;;;;;4993942;28;20157;-67
2022/10/12 11:25:51;;;;;;;6.43;3.85;;;;;;;;;;4919871;29;20059;-67
2022/10/12 11:28:23;;;;;;;5.57;3.10;;;;;;;;;;4935909;29;20060;-67
2022/10/12 11:30:53;;;;;;;;;;;;;;;;;;4901576;29;20055;-67
2022/10/12 11:33:37;;;;;;;6.65;3.47;;;;;;;;;;4955018;29;19922;-67
2022/10/12 11:36:13;;;;;;;6.15;3.30;;;;;;;;;;4970336;28;20161;-67
2022/10/12 11:38:54;;;;;;;5.55;3.15;;;;;;;;;;4964705;28;20063;-69
2022/10/12 11:41:44;;;;;;;6.10;2.47;;;;;;;;;;4923030;29;20055;-67
2022/10/12 11:44:43;;;;;;;5.78;3.67;;;;;;;;;;4954872;29;20062;-68
2022/10/12 11:47:23;;;;;;;;;;;;;;;;;;4955322;29;20562;-67
2022/10/12 11:50:04;;;;;;;4.03;2.22;;;;;;;;;;4973731;28;19922;-67
2022/10/12 11:52:40;;;;;;;4.35;2.42;;;;;;;;;;4926060;28;20502;-67
2022/10/12 11:55:30;;;;;;;7.22;4.68;;;;;;;;;;4957824;28;20061;-67
2022/10/12 11:58:11;;;;;;;5.32;3.17;;;;;;;;;;4937006;28;20061;-67
2022/10/12 12:01:22;;;;;;;4.72;2.70;;;;;;;;;;4993335;28;20057;-67
2022/10/12 12:04:17;;;;;;;4.25;2.50;;;;;;;;;;5044540;28;20068;-67
2022/10/12 12:07:22;;;;;;;6.47;3.30;;;;;;;;;;5052455;28;20049;-67
2022/10/12 12:09:52;;;;;;;;;;;;;;;;;;5003282;28;20060;-67
2022/10/12 12:12:32;;;;;;;4.70;1.67;;;;;;;;;;5052190;28;20296;-67
2022/10/12 12:15:07;;;;;;;7.88;2.78;;;;;;;;;;5035219;28;20057;-67
2022/10/12 12:17:37;;;;;;;3.03;1.73;;;;;;;;;;5051975;28;20049;-67
2022/10/12 12:20:42;;;;;;;3.08;1.83;;;;;;;;;;5005513;28;20127;-67
2022/10/12 12:23:27;;;;;;;3.00;1.45;;;;;;;;;;5011771;28;20050;-67
2022/10/12 12:26:09;;;;;;;3.05;1.65;;;;;;;;;;4980726;28;20057;-67
2022/10/12 12:28:50;;;;;;;3.25;1.70;;;;;;;;;;4963313;28;20073;-67
2022/10/12 12:31:23;;;;;;;4.80;1.73;;;;;;;;;;4971128;28;20057;-67
2022/10/12 12:34:04;;;;;;;4.18;1.90;;;;;;;;;;5015123;28;20053;-68
2022/10/12 12:36:39;;;;;;;3.72;2.00;;;;;;;;;;5031740;28;20094;-67
2022/10/12 12:39:23;;;;;;;2.85;1.27;;;;;;;;;;5031662;28;20420;-67
2022/10/12 12:41:56;;;;;;;41.38;17.48;;;;;;;;;;5031657;28;20053;-67
2022/10/12 12:44:35;;;;;;;54.58;28.02;;;;;;;;;;5031895;28;20524;-67
2022/10/12 12:47:08;;;;;;;16.92;10.10;;;;;;;;;;5031404;28;20413;-67
2022/10/12 12:50:22;;;;;;;6.07;2.90;;;;;;;;;;5031504;28;20062;-68
2022/10/12 12:53:00;;;;;;;4.82;2.80;;;;;;;;;;5031546;28;20061;-67
2022/10/12 12:55:48;;;;;;;5.18;2.78;;;;;;;;;;5031492;28;20058;-67
2022/10/12 12:58:45;;;;;;;18.15;10.07;;;;;;;;;;4955038;28;20404;-67
2022/10/12 13:01:46;;;;;;;21.35;13.52;;;;;;;;;;5061476;28;20048;-67
2022/10/12 13:04:41;;;;;;;15.30;6.60;;;;;;;;;;5057930;28;20048;-68
2022/10/12 13:07:20;;;;;;;24.70;11.40;;;;;;;;;;5092756;28;20047;-67
2022/10/12 13:10:27;;;;;;;17.02;6.63;;;;;;;;;;5092536;28;20067;-68
2022/10/12 13:13:16;;;;;;;18.52;7.78;;;;;;;;;;5092567;28;20032;-67
2022/10/12 13:16:08;;;;;;;22.10;8.77;;;;;;;;;;5093689;28;20048;-67
2022/10/12 13:18:53;;;;;;;20.88;8.98;;;;;;;;;;5092125;28;20059;-67
2022/10/12 13:21:28;;;;;;;16.15;7.18;;;;;;;;;;5092287;28;20055;-67
2022/10/12 13:24:21;;;;;;;19.98;7.10;;;;;;;;;;5042536;28;20415;-67
2022/10/12 13:27:02;;;;;;;19.98;6.35;;;;;;;;;;5093268;28;20395;-67
2022/10/12 13:29:42;;;;;;;76.53;34.58;;;;;;;;;;5050526;28;20044;-67
2022/10/12 13:32:44;;;;;;;24.75;9.75;;;;;;;;;;5046755;28;20057;-68
2022/10/12 13:35:37;;;;;;;26.17;11.65;;;;;;;;;;5030334;28;20057;-67
2022/10/12 13:38:21;;;;;;;21.02;8.82;;;;;;;;;;4952216;29;20503;-67
2022/10/12 13:41:03;;;;;;;19.67;8.45;;;;;;;;;;4952471;29;20459;-67
2022/10/12 13:43:49;;;;;;;22.15;9.15;;;;;;;;;;4952291;29;20059;-67
2022/10/12 13:46:43;;;;;;;22.23;8.65;;;;;;;;;;4952442;29;20068;-67
2022/10/12 13:49:32;;;;;;;23.38;8.95;;;;;;;;;;4952488;29;20058;-67
2022/10/12 13:52:24;;;;;;;20.52;8.40;;;;;;;;;;4952177;29;20051;-67
2022/10/12 13:55:14;;;;;;;24.02;8.32;;;;;;;;;;4916986;29;20381;-67
2022/10/12 13:57:47;;;;;;;19.85;7.65;;;;;;;;;;4933257;29;20066;-66
2022/10/12 14:00:21;;;;;;;19.23;8.82;;;;;;;;;;4932841;29;20056;-67
2022/10/12 14:02:58;;;;;;;23.83;10.00;;;;;;;;;;4932939;29;20056;-67
2022/10/12 14:05:32;;;;;;;21.70;9.55;;;;;;;;;;4932773;29;20051;-67
2022/10/12 14:08:09;;;;;;;20.70;8.20;;;;;;;;;;4933733;29;20404;-67
2022/10/12 14:10:41;;;;;;;20.00;9.00;;;;;;;;;;4952159;29;20569;-67
2022/10/12 14:13:17;;;;;;;12.70;6.00;;;;;;;;;;4964370;28;20058;-67
2022/10/12 14:15:49;;;;;;;23.48;11.50;;;;;;;;;;5028388;28;20495;-67
2022/10/12 14:18:40;;;;;;;26.85;12.50;;;;;;;;;;5069832;28;20147;-67
2022/10/12 14:21:11;;;;;;;16.80;8.30;;;;;;;;;;5036465;28;20060;-67
2022/10/12 14:23:59;;;;;;;16.38;6.57;;;;;;;;;;4999972;28;20060;-67
2022/10/12 14:26:35;;;;;;;10.70;5.13;;;;;;;;;;5035123;28;20045;-67
2022/10/12 14:29:35;;;;;;;14.30;5.57;;;;;;;;;;5000486;28;20523;-67
2022/10/12 14:32:45;;;;;;;12.30;6.25;;;;;;;;;;5063473;28;20111;-66
2022/10/12 14:35:18;;;;;;;10.88;5.47;;;;;;;;;;5069719;28;20044;-67
2022/10/12 14:37:51;;;;;;;13.00;5.95;;;;;;;;;;5069791;28;20048;-66
2022/10/12 14:40:29;;;;;;;13.52;6.32;;;;;;;;;;5069780;28;20583;-67
2022/10/12 14:43:27;;;;;;;19.75;10.00;;;;;;;;;;5036927;28;20507;-66
2022/10/12 14:45:57;;;;;;;10.02;4.85;;;;;;;;;;4993296;28;20053;-66
2022/10/12 14:48:26;;;;;;;20.58;11.15;;;;;;;;;;4990309;28;20046;-66
2022/10/12 14:50:57;;;;;;;6.00;3.53;;;;;;;;;;4990258;28;20062;-67
2022/10/12 14:53:28;;;;;;;11.13;6.32;;;;;;;;;;4990289;28;20066;-67
2022/10/12 14:55:58;;;;;;;4.95;2.63;;;;;;;;;;4990223;28;20054;-67
2022/10/12 14:58:28;;;;;;;30.35;15.85;;;;;;;;;;4966958;28;20499;-67
2022/10/12 15:00:58;;;;;;;16.13;7.35;;;;;;;;;;4926365;28;20067;-66
2022/10/12 15:03:29;;;;;;;7.45;3.78;;;;;;;;;;4938826;28;20490;-67
2022/10/12 15:05:59;;;;;;;14.50;6.88;;;;;;;;;;4986776;28;20062;-67
2022/10/12 15:08:29;;;;;;;7.43;3.13;;;;;;;;;;4970829;28;20047;-67
2022/10/12 15:10:59;;;;;;;4.75;2.70;;;;;;;;;;4922933;28;20055;-67
2022/10/12 15:13:29;;;;;;;5.57;2.80;;;;;;;;;;4970890;28;20064;-67
2022/10/12 15:16:01;;;;;;;5.13;2.53;;;;;;;;;;4970545;28;20070;-67
2022/10/12 15:18:32;;;;;;;;;;;;;;;;;;4971069;28;20406;-69
2022/10/12 15:21:03;;;;;;;3.97;2.45;;;;;;;;;;4970493;28;19933;-67
2022/10/12 15:23:33;;;;;;;4.05;2.10;;;;;;;;;;4984319;28;20050;-68
2022/10/12 15:26:04;;;;;;;6.03;2.90;;;;;;;;;;5039960;28;20055;-67
2022/10/12 15:28:34;;;;;;;3.45;2.50;;;;;;;;;;5069215;28;20049;-67
2022/10/12 15:31:05;;;;;;;2.38;1.50;;;;;;;;;;5035306;28;20483;-66
2022/10/12 15:33:50;;;;;;;6.93;3.20;;;;;;;;;;5072535;28;20412;-68
2022/10/12 15:36:21;;;;;;;3.08;2.08;;;;;;;;;;5086472;28;20052;-66
2022/10/12 15:38:51;;;;;;;3.53;1.95;;;;;;;;;;5095268;28;20075;-66